Time;durP1;ratioP1;P1;durP2;ratioP2;P2;SDS_P1;SDS_P2;PMS_P1;PMS_P2;Temp;Humidity;BMP_temperature;BMP_pressure;BME280_temperature;BME280_humidity;BME280_pressure;Samples;Min_cycle;Max_cycle;Signal;HPM_P1;HPM_P2
2022/01/19 00:01:38;;;;;;;4.80;3.43;;;3.00;99.90;;;;;;5014525;28;20408;-68
2022/01/19 00:04:03;;;;;;;3.55;3.25;;;3.10;99.90;;;;;;5014155;28;20505;-69
2022/01/19 00:06:29;;;;;;;4.77;4.33;;;2.90;99.90;;;;;;5014252;28;20290;-68
2022/01/19 00:08:55;;;;;;;3.93;3.67;;;3.00;99.90;;;;;;5013854;28;20421;-67
2022/01/19 00:11:22;;;;;;;5.70;5.20;;;2.90;99.90;;;;;;5014306;28;20457;-68
2022/01/19 00:13:49;;;;;;;4.43;3.22;;;2.80;99.90;;;;;;5014044;28;20167;-68
2022/01/19 00:16:15;;;;;;;5.50;5.00;;;2.80;99.90;;;;;;5014087;28;20217;-68
2022/01/19 00:18:41;;;;;;;10.10;4.97;;;2.80;99.90;;;;;;5013797;28;20230;-68
2022/01/19 00:21:08;;;;;;;2.93;2.73;;;2.70;99.90;;;;;;5014239;28;20414;-69
2022/01/19 00:23:33;;;;;;;3.22;2.72;;;2.70;99.90;;;;;;5012758;28;20175;-69
2022/01/19 00:25:59;;;;;;;3.73;3.00;;;2.60;99.90;;;;;;5014239;28;20549;-70
2022/01/19 00:28:25;;;;;;;6.30;4.10;;;2.60;99.90;;;;;;5013615;28;20250;-69
2022/01/19 00:30:51;;;;;;;3.58;3.30;;;2.50;99.90;;;;;;5014024;28;20190;-68
2022/01/19 00:33:19;;;;;;;9.50;4.13;;;2.50;99.90;;;;;;5014066;28;20170;-68
2022/01/19 00:35:46;;;;;;;5.47;4.18;;;2.40;99.90;;;;;;5011973;28;20186;-69
2022/01/19 00:38:11;;;;;;;5.10;2.97;;;2.40;99.90;;;;;;5013466;28;20232;-69
2022/01/19 00:40:39;;;;;;;7.20;3.87;;;2.30;99.90;;;;;;5013829;28;20194;-68
2022/01/19 00:43:05;;;;;;;3.28;3.03;;;2.20;99.90;;;;;;5012590;28;20206;-69
2022/01/19 00:45:31;;;;;;;4.00;2.72;;;2.20;99.90;;;;;;5013591;28;20210;-69
2022/01/19 00:47:57;;;;;;;2.93;2.73;;;2.20;99.90;;;;;;5013296;28;20179;-69
2022/01/19 00:50:27;;;;;;;5.87;3.93;;;2.20;99.90;;;;;;5013657;28;20687;-68
2022/01/19 00:52:54;;;;;;;3.13;2.85;;;2.10;99.90;;;;;;5014003;28;20568;-69
2022/01/19 00:55:22;;;;;;;8.88;4.05;;;2.10;99.90;;;;;;5013721;28;20249;-69
2022/01/19 00:57:48;;;;;;;4.28;3.22;;;2.10;99.90;;;;;;5012315;28;20166;-68
2022/01/19 01:00:18;;;;;;;5.93;3.88;;;2.10;99.90;;;;;;5013349;28;20214;-69
2022/01/19 01:02:43;;;;;;;5.05;3.90;;;2.00;99.90;;;;;;5013747;28;20213;-69
2022/01/19 01:05:09;;;;;;;8.40;3.70;;;2.00;99.90;;;;;;5013571;28;20198;-68
2022/01/19 01:07:38;;;;;;;3.85;3.38;;;2.00;99.90;;;;;;5013134;28;20170;-69
2022/01/19 01:10:05;;;;;;;5.70;3.83;;;2.00;99.90;;;;;;5013394;28;20209;-70
2022/01/19 01:12:44;;;;;;;4.82;3.78;;;1.90;99.90;;;;;;5014065;28;20250;-69
2022/01/19 01:15:28;;;;;;;3.42;3.13;;;1.90;99.90;;;;;;5013607;28;20194;-67
2022/01/19 01:20:39;;;;;;;3.60;3.30;;;1.90;99.90;;;;;;5013274;28;20244;-68
2022/01/19 01:23:09;;;;;;;3.97;3.70;;;1.90;99.90;;;;;;5012454;28;20240;-69
2022/01/19 01:25:35;;;;;;;5.57;4.55;;;1.90;99.90;;;;;;5013438;28;20187;-69
2022/01/19 01:28:00;;;;;;;6.25;2.88;;;1.90;99.90;;;;;;5012955;28;20171;-68
2022/01/19 01:30:26;;;;;;;5.13;4.10;;;1.90;99.90;;;;;;5013199;28;20191;-68
2022/01/19 01:32:52;;;;;;;4.00;3.60;;;1.90;99.90;;;;;;5013441;28;20221;-69
2022/01/19 01:35:17;;;;;;;5.33;3.77;;;1.90;99.90;;;;;;5013049;28;20175;-69
2022/01/19 01:37:43;;;;;;;5.90;3.37;;;1.90;99.90;;;;;;5011550;28;20680;-69
2022/01/19 01:40:12;;;;;;;4.70;3.10;;;1.90;99.90;;;;;;5013165;28;20245;-69
2022/01/19 01:42:39;;;;;;;10.35;4.50;;;1.90;99.90;;;;;;5013537;28;20225;-69
2022/01/19 01:45:09;;;;;;;3.17;2.92;;;1.80;99.90;;;;;;5013120;28;20634;-68
2022/01/19 01:47:41;;;;;;;5.30;3.38;;;1.70;99.90;;;;;;5014322;28;20159;-70
2022/01/19 01:55:20;;;;;;;4.75;3.85;;;1.60;99.90;;;;;;5017068;28;20300;-68
2022/01/19 01:57:47;;;;;;;6.00;4.25;;;1.50;99.90;;;;;;5016319;28;20625;-69
2022/01/19 02:00:16;;;;;;;3.65;2.80;;;1.40;99.90;;;;;;5016189;28;20202;-70
2022/01/19 02:02:42;;;;;;;3.10;2.80;;;1.40;99.90;;;;;;5016571;28;20167;-70
2022/01/19 02:05:10;;;;;;;3.50;3.03;;;1.30;99.90;;;;;;5016449;28;20178;-67
2022/01/19 02:10:07;;;;;;;3.67;3.25;;;1.20;99.90;;;;;;5016451;28;20191;-68
2022/01/19 02:23:43;;;;;;;6.03;4.30;;;1.10;99.90;;;;;;5016281;28;20177;-69
2022/01/19 02:26:15;;;;;;;4.28;3.95;;;1.00;99.90;;;;;;5016180;28;20209;-68
2022/01/19 02:29:07;;;;;;;4.40;3.63;;;0.90;99.90;;;;;;5015503;28;20179;-68
2022/01/19 02:36:33;;;;;;;3.17;2.97;;;0.90;99.90;;;;;;5016065;28;20166;-69
2022/01/19 02:40:14;;;;;;;3.30;2.78;;;0.80;99.90;;;;;;5015468;28;20194;-67
2022/01/19 02:50:35;;;;;;;3.60;3.30;;;0.70;99.90;;;;;;5015483;28;20440;-69
2022/01/19 02:53:01;;;;;;;4.85;3.35;;;0.60;99.90;;;;;;5015914;28;20165;-67
2022/01/19 02:55:29;;;;;;;5.97;4.57;;;0.70;99.90;;;;;;5015666;28;20174;-68
2022/01/19 02:57:54;;;;;;;7.85;4.00;;;0.70;99.90;;;;;;5015039;28;20175;-70
2022/01/19 03:08:44;;;;;;;4.35;3.88;;;0.60;99.90;;;;;;5014595;28;20730;-68
2022/01/19 03:11:10;;;;;;;4.60;3.22;;;0.60;99.90;;;;;;5014205;28;20185;-68
2022/01/19 03:13:36;;;;;;;10.23;2.70;;;0.60;99.90;;;;;;5015266;28;20166;-71
2022/01/19 03:16:02;;;;;;;7.33;5.17;;;0.60;99.90;;;;;;5030252;28;20186;-70
2022/01/19 03:18:27;;;;;;;3.13;2.83;;;0.50;99.90;;;;;;5014778;28;20188;-70
2022/01/19 03:20:53;;;;;;;3.20;2.87;;;0.50;99.90;;;;;;5015165;28;20177;-69
2022/01/19 03:23:20;;;;;;;2.47;2.30;;;0.50;99.90;;;;;;5014996;28;20405;-70
2022/01/19 03:25:48;;;;;;;3.10;2.38;;;0.50;99.90;;;;;;5013710;28;20198;-68
2022/01/19 03:28:13;;;;;;;10.95;4.45;;;0.50;99.90;;;;;;5014757;28;20174;-69
2022/01/19 03:30:39;;;;;;;6.23;2.70;;;0.40;99.90;;;;;;5015026;28;20174;-70
2022/01/19 03:33:05;;;;;;;8.97;3.20;;;0.30;99.90;;;;;;5015041;28;20173;-69
2022/01/19 03:35:31;;;;;;;3.30;3.10;;;0.20;99.90;;;;;;5014903;28;20444;-70
2022/01/19 03:37:56;;;;;;;4.17;3.90;;;0.20;99.90;;;;;;5014389;28;20466;-69
2022/01/19 03:40:22;;;;;;;6.70;3.73;;;0.20;99.90;;;;;;5014592;28;20685;-69
2022/01/19 03:42:49;;;;;;;3.30;3.10;;;0.20;99.90;;;;;;5014829;28;20398;-66
2022/01/19 03:45:15;;;;;;;6.25;3.40;;;0.20;99.90;;;;;;5014718;28;20410;-68
2022/01/19 03:47:50;;;;;;;3.43;3.23;;;0.10;99.90;;;;;;5014269;28;20165;-69
2022/01/19 03:50:16;;;;;;;4.20;2.03;;;0.10;99.90;;;;;;5014530;28;20194;-70
2022/01/19 03:52:41;;;;;;;2.63;2.43;;;0.10;99.90;;;;;;5014377;28;20178;-70
2022/01/19 03:55:08;;;;;;;3.80;3.17;;;0.10;99.90;;;;;;5014892;28;20173;-71
2022/01/19 03:57:34;;;;;;;3.25;2.95;;;0.00;99.90;;;;;;5014344;28;20163;-69
2022/01/19 04:00:00;;;;;;;4.88;1.98;;;0.00;99.90;;;;;;5014201;28;20190;-70
2022/01/19 04:02:26;;;;;;;2.57;2.00;;;0.00;99.90;;;;;;5014571;28;20176;-69
2022/01/19 04:04:58;;;;;;;5.07;2.72;;;-0.10;99.90;;;;;;5013265;28;20177;-69
2022/01/19 04:07:24;;;;;;;3.33;3.10;;;-0.10;99.90;;;;;;5012682;28;20569;-70
2022/01/19 04:09:50;;;;;;;3.20;2.95;;;-0.10;99.90;;;;;;5013638;28;20194;-69
2022/01/19 04:12:30;;;;;;;3.90;3.37;;;-0.10;99.90;;;;;;5014714;28;20171;-69
2022/01/19 04:14:56;;;;;;;4.13;3.78;;;-0.10;99.90;;;;;;5014293;28;20448;-70
2022/01/19 04:17:22;;;;;;;2.33;2.23;;;-0.20;99.90;;;;;;5014390;28;20177;-69
2022/01/19 04:19:49;;;;;;;2.53;2.42;;;-0.20;99.90;;;;;;5013810;28;20193;-67
2022/01/19 04:22:18;;;;;;;5.22;4.72;;;-0.20;99.90;;;;;;5013756;28;20656;-71
2022/01/19 04:24:45;;;;;;;2.50;2.28;;;-0.20;99.90;;;;;;5014359;28;20173;-71
2022/01/19 04:30:09;;;;;;;4.47;4.13;;;-0.20;99.90;;;;;;5013704;28;20197;-69
2022/01/19 04:35:06;;;;;;;6.05;2.85;;;-0.10;99.90;;;;;;5014495;28;20178;-69
2022/01/19 04:37:57;;;;;;;4.97;2.33;;;-0.10;99.90;;;;;;5013717;28;20261;-68
2022/01/19 05:04:44;;;;;;;4.65;2.38;;;-0.30;99.90;;;;;;5013776;28;20221;-68
2022/01/19 05:07:24;;;;;;;3.55;3.25;;;-0.40;99.90;;;;;;5012878;28;20571;-68
2022/01/19 05:15:01;;;;;;;2.42;2.33;;;-0.50;99.90;;;;;;5013906;28;20162;-67
2022/01/19 05:17:27;;;;;;;2.22;2.05;;;-0.50;99.90;;;;;;5013593;28;20536;-69
2022/01/19 05:19:52;;;;;;;2.23;2.07;;;-0.50;99.90;;;;;;5012903;28;20201;-69
2022/01/19 05:22:18;;;;;;;3.60;2.30;;;-0.50;99.90;;;;;;5014479;28;20177;-67
2022/01/19 05:24:45;;;;;;;5.77;4.00;;;-0.50;99.90;;;;;;5017399;28;20170;-69
2022/01/19 05:27:11;;;;;;;4.07;3.78;;;-0.40;99.90;;;;;;5017018;28;20245;-68
2022/01/19 05:29:37;;;;;;;5.10;4.60;;;-0.40;99.90;;;;;;5016778;28;20652;-69
2022/01/19 05:32:03;;;;;;;3.83;3.47;;;-0.30;99.90;;;;;;5017331;28;20259;-69
2022/01/19 05:34:29;;;;;;;3.92;3.53;;;-0.30;99.90;;;;;;5016824;28;20158;-69
2022/01/19 05:36:54;;;;;;;4.30;3.93;;;-0.30;99.90;;;;;;5016937;28;20310;-67
2022/01/19 05:39:20;;;;;;;4.37;3.83;;;-0.30;99.90;;;;;;5016450;28;20187;-68
2022/01/19 05:41:46;;;;;;;6.53;5.03;;;-0.30;99.90;;;;;;5017052;28;20288;-69
2022/01/19 05:44:11;;;;;;;2.95;2.75;;;-0.30;99.90;;;;;;5016882;28;20167;-69
2022/01/19 05:46:37;;;;;;;3.50;3.30;;;-0.30;99.90;;;;;;5016829;28;20201;-68
2022/01/19 05:49:03;;;;;;;4.90;2.93;;;-0.30;99.90;;;;;;5016273;28;20191;-68
2022/01/19 05:51:28;;;;;;;2.50;1.97;;;-0.30;99.90;;;;;;4996689;28;20193;-68
2022/01/19 05:53:54;;;;;;;3.63;3.40;;;-0.30;99.90;;;;;;4997528;28;20174;-68
2022/01/19 05:56:20;;;;;;;6.07;5.47;;;-0.30;99.90;;;;;;5003088;28;20748;-68
2022/01/19 05:58:45;;;;;;;3.63;3.33;;;-0.30;99.90;;;;;;5014784;28;20651;-68
2022/01/19 06:01:11;;;;;;;3.80;3.43;;;-0.30;99.90;;;;;;5015380;28;20209;-67
2022/01/19 06:03:36;;;;;;;4.93;3.40;;;-0.40;99.90;;;;;;5016819;28;20182;-68
2022/01/19 06:06:02;;;;;;;2.83;2.37;;;-0.30;99.90;;;;;;5016353;28;20208;-69
2022/01/19 06:10:55;;;;;;;3.67;2.33;;;-0.40;99.90;;;;;;5016322;28;20167;-68
2022/01/19 06:13:22;;;;;;;4.03;2.97;;;-0.40;99.90;;;;;;5016398;28;20298;-71
2022/01/19 06:15:49;;;;;;;6.40;4.70;;;-0.40;99.90;;;;;;5016357;28;20190;-70
2022/01/19 06:18:15;;;;;;;5.45;4.78;;;-0.50;99.90;;;;;;5015882;28;20259;-70
2022/01/19 06:20:42;;;;;;;2.72;2.53;;;-0.50;99.90;;;;;;5016212;28;20180;-71
2022/01/19 06:23:07;;;;;;;4.05;3.75;;;-0.40;99.90;;;;;;5016256;28;20170;-68
2022/01/19 06:25:33;;;;;;;3.33;2.60;;;-0.40;99.90;;;;;;5015707;28;20626;-67
2022/01/19 06:27:59;;;;;;;4.47;4.17;;;-0.40;99.90;;;;;;5015727;28;20176;-71
2022/01/19 06:30:25;;;;;;;3.17;2.83;;;-0.30;99.90;;;;;;5015730;28;20834;-69
2022/01/19 06:32:51;;;;;;;5.20;3.53;;;-0.30;99.90;;;;;;5015831;28;20413;-72
2022/01/19 06:35:17;;;;;;;4.03;3.50;;;-0.30;99.90;;;;;;5015866;28;20406;-69
2022/01/19 06:37:42;;;;;;;4.40;4.00;;;-0.30;99.90;;;;;;5015045;28;20247;-67
2022/01/19 06:40:10;;;;;;;2.47;2.30;;;-0.20;99.90;;;;;;5014700;28;20448;-67
2022/01/19 06:42:37;;;;;;;5.35;3.50;;;-0.20;99.90;;;;;;5014497;28;20654;-68
2022/01/19 06:45:04;;;;;;;4.13;2.53;;;-0.10;99.90;;;;;;5015928;28;20206;-69
2022/01/19 06:47:30;;;;;;;3.08;2.72;;;-0.10;99.90;;;;;;5015361;28;20264;-69
2022/01/19 06:49:55;;;;;;;4.83;4.40;;;0.00;99.90;;;;;;5015111;28;20203;-69
2022/01/19 06:52:21;;;;;;;4.80;4.50;;;0.00;99.90;;;;;;5015388;28;20417;-69
2022/01/19 06:54:47;;;;;;;3.63;2.67;;;0.00;99.90;;;;;;5015386;28;20178;-68
2022/01/19 06:57:12;;;;;;;5.10;4.33;;;0.00;99.90;;;;;;5015634;28;20175;-69
2022/01/19 06:59:38;;;;;;;3.80;3.17;;;0.00;99.90;;;;;;5014926;28;20200;-69
2022/01/19 07:02:04;;;;;;;4.77;3.77;;;0.00;99.90;;;;;;5014659;28;20169;-68
2022/01/19 07:04:29;;;;;;;4.73;4.20;;;0.00;99.90;;;;;;5013015;28;20177;-69
2022/01/19 07:06:55;;;;;;;9.20;4.37;;;0.00;99.90;;;;;;5013189;28;20452;-68
2022/01/19 07:09:21;;;;;;;6.53;3.57;;;0.10;99.90;;;;;;5011821;28;20198;-68
2022/01/19 07:11:46;;;;;;;4.07;3.63;;;0.10;99.90;;;;;;5013693;28;20197;-70
2022/01/19 07:14:13;;;;;;;5.47;2.50;;;0.10;99.90;;;;;;5013605;28;20195;-69
2022/01/19 07:16:39;;;;;;;5.35;3.55;;;0.10;99.90;;;;;;5012453;28;20948;-68
2022/01/19 07:19:05;;;;;;;5.38;4.70;;;0.10;99.90;;;;;;5014313;28;20203;-69
2022/01/19 07:21:31;;;;;;;7.60;5.77;;;0.10;99.90;;;;;;5014929;28;20250;-69
2022/01/19 07:23:57;;;;;;;7.07;3.13;;;0.20;99.90;;;;;;5014969;28;20463;-69
2022/01/19 07:26:22;;;;;;;3.70;3.30;;;0.10;99.90;;;;;;5013400;28;20213;-69
2022/01/19 07:28:48;;;;;;;5.83;4.60;;;0.20;99.90;;;;;;5013029;28;20194;-70
2022/01/19 07:31:14;;;;;;;7.47;5.03;;;0.20;99.90;;;;;;5014888;28;20198;-69
2022/01/19 07:33:40;;;;;;;11.93;6.35;;;0.30;99.90;;;;;;5014872;28;20402;-67
2022/01/19 07:36:06;;;;;;;5.90;4.80;;;0.30;99.90;;;;;;5013366;28;20625;-68
2022/01/19 07:38:31;;;;;;;9.70;5.47;;;0.40;99.90;;;;;;5014305;28;20625;-69
2022/01/19 07:40:57;;;;;;;7.20;6.27;;;0.50;99.90;;;;;;5014484;28;20182;-68
2022/01/19 07:43:23;;;;;;;6.83;4.93;;;0.70;99.90;;;;;;5014656;28;20412;-68
2022/01/19 07:45:49;;;;;;;14.30;5.80;;;0.90;99.90;;;;;;5014003;28;20939;-70
2022/01/19 07:48:14;;;;;;;6.13;5.07;;;1.20;99.90;;;;;;5013720;28;20647;-71
2022/01/19 07:50:40;;;;;;;8.77;6.33;;;1.40;99.90;;;;;;5014404;28;20545;-70
2022/01/19 07:53:06;;;;;;;16.23;7.70;;;1.80;99.90;;;;;;5014876;28;20245;-68
2022/01/19 07:55:32;;;;;;;10.88;7.75;;;2.10;99.90;;;;;;5012831;28;20189;-69
2022/01/19 07:57:58;;;;;;;19.63;8.23;;;2.30;99.90;;;;;;5013642;28;20179;-68
2022/01/19 08:00:23;;;;;;;9.87;6.93;;;2.50;99.90;;;;;;5014171;28;20661;-68
2022/01/19 08:02:49;;;;;;;10.13;6.53;;;2.70;99.90;;;;;;5014307;28;20211;-70
2022/01/19 08:05:16;;;;;;;14.20;8.27;;;2.70;99.90;;;;;;5014426;28;20402;-69
2022/01/19 08:07:42;;;;;;;13.30;7.55;;;2.60;99.90;;;;;;5013874;28;20437;-70
2022/01/19 08:10:09;;;;;;;7.90;6.13;;;2.70;99.90;;;;;;5013642;28;20222;-69
2022/01/19 08:12:35;;;;;;;18.08;7.68;;;2.70;99.90;;;;;;5012963;28;20398;-70
2022/01/19 08:15:01;;;;;;;8.10;5.55;;;2.80;99.90;;;;;;5014227;28;20171;-69
2022/01/19 08:17:28;;;;;;;9.43;8.45;;;3.00;99.90;;;;;;5013990;28;20201;-70
2022/01/19 08:19:55;;;;;;;11.93;6.43;;;3.20;99.90;;;;;;5013848;28;20186;-69
2022/01/19 08:22:21;;;;;;;8.15;6.45;;;3.40;99.90;;;;;;5014075;28;20511;-67
2022/01/19 08:24:46;;;;;;;11.87;7.23;;;3.50;99.90;;;;;;5013735;28;20182;-69
2022/01/19 08:27:13;;;;;;;11.53;4.90;;;3.80;99.90;;;;;;5013478;28;20506;-69
2022/01/19 08:29:39;;;;;;;10.35;5.55;;;4.10;99.90;;;;;;5013680;28;20547;-68
2022/01/19 08:32:05;;;;;;;12.15;6.57;;;4.50;99.90;;;;;;5013923;28;20211;-68
2022/01/19 08:34:32;;;;;;;7.53;5.10;;;5.10;99.90;;;;;;5014090;28;20170;-68
2022/01/19 08:36:59;;;;;;;5.80;4.47;;;5.80;99.90;;;;;;5013675;28;20317;-69
2022/01/19 08:39:25;;;;;;;8.70;4.70;;;6.60;99.90;;;;;;5013115;28;20197;-70
2022/01/19 08:41:52;;;;;;;6.45;4.68;;;7.50;99.90;;;;;;5013832;28;20207;-70
2022/01/19 08:44:19;;;;;;;4.00;3.57;;;8.30;99.90;;;;;;5013852;28;20574;-70
2022/01/19 08:46:45;;;;;;;7.70;4.80;;;8.90;99.90;;;;;;5013613;28;20503;-69
2022/01/19 08:49:11;;;;;;;6.90;4.53;;;9.40;99.90;;;;;;5013483;28;20457;-71
2022/01/19 08:51:37;;;;;;;7.17;5.83;;;10.10;99.90;;;;;;5013662;28;20273;-69
2022/01/19 08:54:03;;;;;;;9.50;5.37;;;10.60;97.80;;;;;;5013529;28;20500;-70
2022/01/19 08:56:29;;;;;;;5.90;5.27;;;11.00;97.10;;;;;;5013623;28;20635;-69
2022/01/19 08:58:55;;;;;;;5.80;5.30;;;11.40;96.40;;;;;;5016885;28;20425;-70
2022/01/19 09:01:21;;;;;;;5.13;4.63;;;11.90;96.40;;;;;;5018778;28;20409;-71
2022/01/19 09:03:47;;;;;;;7.50;6.07;;;12.40;94.90;;;;;;5017727;28;20229;-71
2022/01/19 09:06:12;;;;;;;6.10;5.50;;;12.70;93.20;;;;;;5017230;28;20443;-69
2022/01/19 09:08:38;;;;;;;9.13;5.67;;;12.80;92.20;;;;;;5017204;28;20190;-68
2022/01/19 09:11:05;;;;;;;5.60;4.70;;;12.90;92.60;;;;;;5017419;28;20170;-70
2022/01/19 09:13:32;;;;;;;8.90;5.87;;;13.00;92.20;;;;;;5017593;28;20174;-68
2022/01/19 09:15:58;;;;;;;9.07;5.77;;;13.10;91.20;;;;;;5017604;28;20437;-71
2022/01/19 09:18:24;;;;;;;5.40;4.90;;;13.30;91.00;;;;;;5016959;28;20920;-69
2022/01/19 09:20:49;;;;;;;6.57;4.70;;;13.50;91.10;;;;;;5017255;28;20392;-71
2022/01/19 09:23:15;;;;;;;7.27;5.23;;;13.60;90.70;;;;;;5016981;28;20262;-69
2022/01/19 09:25:41;;;;;;;7.43;5.57;;;13.80;90.50;;;;;;5017133;28;20564;-71
2022/01/19 09:28:07;;;;;;;8.53;5.43;;;13.80;89.70;;;;;;5016836;28;20430;-69
2022/01/19 09:30:34;;;;;;;6.30;4.77;;;13.80;89.60;;;;;;5017171;28;20192;-69
2022/01/19 09:33:10;;;;;;;6.00;5.40;;;13.70;89.70;;;;;;5016987;28;20409;-67
2022/01/19 09:35:52;;;;;;;5.67;5.00;;;13.80;89.90;;;;;;5016873;28;20457;-70
2022/01/19 09:38:25;;;;;;;7.93;5.50;;;13.80;88.80;;;;;;5016617;28;20885;-69
2022/01/19 09:40:51;;;;;;;5.83;5.13;;;14.00;87.50;;;;;;5015533;28;20421;-70
2022/01/19 09:43:22;;;;;;;5.27;4.77;;;14.30;86.70;;;;;;5017049;28;20369;-71
2022/01/19 09:45:53;;;;;;;5.83;5.23;;;14.40;85.40;;;;;;5016647;28;20427;-70
2022/01/19 09:48:18;;;;;;;5.70;4.70;;;14.40;86.00;;;;;;5016266;28;20382;-69
2022/01/19 09:50:44;;;;;;;6.60;6.00;;;14.40;85.70;;;;;;5014989;28;20435;-71
2022/01/19 09:53:10;;;;;;;5.83;4.80;;;14.50;84.30;;;;;;5016476;28;20255;-69
2022/01/19 09:55:38;;;;;;;5.97;5.00;;;14.50;85.00;;;;;;5016478;28;20814;-69
2022/01/19 09:58:04;;;;;;;5.40;4.83;;;14.40;84.00;;;;;;5015896;28;20393;-68
2022/01/19 10:00:30;;;;;;;6.33;4.93;;;14.30;84.10;;;;;;5016329;28;20399;-68
2022/01/19 10:03:17;;;;;;;5.90;4.80;;;14.00;83.10;;;;;;5016635;28;20404;-69
2022/01/19 10:06:05;;;;;;;5.07;4.60;;;13.80;85.00;;;;;;5016158;28;20447;-69
2022/01/19 10:09:06;;;;;;;6.20;4.53;;;14.00;85.10;;;;;;5014383;28;20739;-69
2022/01/19 10:17:06;;;;;;;7.50;6.03;;;14.50;85.40;;;;;;5016450;28;20440;-68
2022/01/19 10:19:37;;;;;;;4.80;4.33;;;14.70;84.10;;;;;;5015840;28;20408;-69
2022/01/19 10:22:13;;;;;;;6.70;5.20;;;14.70;81.60;;;;;;5016305;28;20430;-69
2022/01/19 10:24:50;;;;;;;5.13;4.40;;;14.50;82.40;;;;;;5016512;28;20384;-68
2022/01/19 10:27:18;;;;;;;5.27;4.47;;;14.50;82.60;;;;;;5015834;28;20850;-69
2022/01/19 10:29:44;;;;;;;7.20;5.40;;;14.60;83.20;;;;;;5015634;28;20471;-70
2022/01/19 10:32:09;;;;;;;5.57;4.83;;;14.70;83.80;;;;;;5016314;28;20401;-69
2022/01/19 10:34:35;;;;;;;6.47;4.73;;;15.00;82.50;;;;;;5016072;28;20365;-68
2022/01/19 10:37:02;;;;;;;6.50;5.90;;;15.10;82.40;;;;;;5015976;28;20168;-69
2022/01/19 10:39:46;;;;;;;5.60;5.10;;;15.20;81.50;;;;;;5015435;28;20645;-69
2022/01/19 10:42:17;;;;;;;5.13;4.63;;;15.00;80.70;;;;;;5015782;28;20421;-69
2022/01/19 10:45:06;;;;;;;4.50;4.10;;;14.80;80.10;;;;;;5015837;28;20458;-67
2022/01/19 10:47:45;;;;;;;10.50;4.77;;;14.60;81.90;;;;;;5015946;28;20467;-70
2022/01/19 10:50:14;;;;;;;4.90;4.40;;;14.20;81.40;;;;;;5015983;28;20449;-70
2022/01/19 10:52:43;;;;;;;5.73;5.20;;;14.10;81.70;;;;;;5015704;28;20721;-70
2022/01/19 10:55:30;;;;;;;5.20;4.70;;;13.90;81.80;;;;;;5015672;28;20429;-68
2022/01/19 10:57:58;;;;;;;6.00;5.37;;;13.80;82.70;;;;;;5015333;28;20405;-69
2022/01/19 11:00:34;;;;;;;7.60;5.73;;;13.90;82.30;;;;;;5015604;28;20384;-71
2022/01/19 11:03:19;;;;;;;8.23;5.20;;;13.80;81.90;;;;;;5015745;28;20476;-69
2022/01/19 11:05:53;;;;;;;5.77;5.17;;;13.50;82.70;;;;;;5015693;28;20431;-70
2022/01/19 11:08:21;;;;;;;4.50;4.10;;;13.00;84.40;;;;;;5016696;28;20454;-71
2022/01/19 11:10:49;;;;;;;6.70;6.00;;;12.60;85.60;;;;;;5015041;28;20388;-69
2022/01/19 11:13:39;;;;;;;6.17;5.60;;;12.30;86.70;;;;;;5016216;28;20851;-71
2022/01/19 11:16:06;;;;;;;5.87;4.83;;;11.90;86.40;;;;;;5016108;28;20455;-69
2022/01/19 11:18:35;;;;;;;6.43;5.83;;;11.60;87.90;;;;;;5015408;28;20382;-69
2022/01/19 11:21:23;;;;;;;8.37;5.57;;;11.40;89.20;;;;;;5014883;28;20412;-70
2022/01/19 11:24:00;;;;;;;9.10;6.00;;;11.20;90.00;;;;;;5015461;28;20426;-67
2022/01/19 11:26:31;;;;;;;8.63;7.07;;;10.70;89.70;;;;;;5015235;28;20492;-67
2022/01/19 11:29:22;;;;;;;7.93;6.63;;;10.10;90.60;;;;;;5014495;28;21019;-69
2022/01/19 11:31:50;;;;;;;6.97;5.80;;;9.40;92.50;;;;;;5015132;28;20391;-69
2022/01/19 11:34:36;;;;;;;5.95;5.35;;;8.90;93.20;;;;;;5014817;28;20473;-69
2022/01/19 11:37:02;;;;;;;8.25;5.45;;;8.40;94.50;;;;;;5014680;28;20258;-69
2022/01/19 11:39:30;;;;;;;6.25;5.15;;;7.90;95.50;;;;;;5014141;28;20539;-67
2022/01/19 11:41:58;;;;;;;5.32;4.80;;;7.70;95.60;;;;;;5014875;28;20634;-68
2022/01/19 11:44:33;;;;;;;11.07;7.20;;;7.50;96.70;;;;;;5014641;28;20572;-68
2022/01/19 11:47:16;;;;;;;12.82;5.57;;;7.30;97.40;;;;;;5014492;28;20293;-66
2022/01/19 11:49:45;;;;;;;8.32;6.65;;;7.30;97.20;;;;;;4994244;28;20211;-67
2022/01/19 11:52:11;;;;;;;7.43;4.68;;;7.20;98.00;;;;;;4994877;28;20178;-69
2022/01/19 11:54:36;;;;;;;5.70;5.03;;;7.10;98.50;;;;;;4994816;28;20176;-68
2022/01/19 11:57:07;;;;;;;6.43;5.00;;;6.90;99.00;;;;;;4994582;28;20178;-70
2022/01/19 11:59:45;;;;;;;6.50;5.18;;;6.90;99.30;;;;;;4993979;28;20225;-67
2022/01/19 12:02:26;;;;;;;8.65;5.28;;;6.80;99.20;;;;;;4996821;28;20177;-66
2022/01/19 12:04:54;;;;;;;5.88;5.38;;;6.70;99.90;;;;;;5014056;28;20190;-67
2022/01/19 12:07:37;;;;;;;5.65;4.90;;;6.60;99.80;;;;;;5014105;28;20202;-69
2022/01/19 12:10:06;;;;;;;6.63;4.65;;;6.60;99.90;;;;;;5014200;28;20277;-68
2022/01/19 12:12:37;;;;;;;6.57;5.88;;;6.50;99.90;;;;;;5014010;28;20627;-69
2022/01/19 12:15:07;;;;;;;9.25;6.65;;;6.50;99.90;;;;;;5013854;28;20159;-68
2022/01/19 12:18:09;;;;;;;6.18;4.97;;;6.30;99.90;;;;;;5012026;28;20275;-68
2022/01/19 12:20:53;;;;;;;7.82;5.22;;;6.30;99.90;;;;;;5013302;28;20608;-69
2022/01/19 12:23:30;;;;;;;5.38;4.82;;;6.20;99.90;;;;;;5013766;28;20185;-69
2022/01/19 12:25:57;;;;;;;10.15;4.82;;;6.10;99.90;;;;;;5012266;28;20200;-68
2022/01/19 12:28:50;;;;;;;7.00;5.20;;;6.00;99.90;;;;;;5013399;28;20170;-66
2022/01/19 12:31:24;;;;;;;11.50;5.30;;;6.00;99.90;;;;;;5012999;28;20187;-68
2022/01/19 12:34:02;;;;;;;6.78;5.10;;;5.90;99.90;;;;;;5013840;28;20180;-70
2022/01/19 12:36:42;;;;;;;6.15;4.75;;;5.90;99.90;;;;;;5013852;28;20207;-67
2022/01/19 12:39:26;;;;;;;5.55;3.92;;;5.90;99.90;;;;;;5013345;28;20674;-70
2022/01/19 12:41:58;;;;;;;9.93;4.78;;;5.90;99.90;;;;;;5013879;28;20198;-69
2022/01/19 12:44:40;;;;;;;5.18;4.68;;;5.80;99.90;;;;;;5013551;28;20162;-68
2022/01/19 12:47:28;;;;;;;5.90;5.15;;;5.80;99.90;;;;;;5013373;28;20198;-69
2022/01/19 12:50:18;;;;;;;8.80;4.90;;;5.80;99.90;;;;;;5013138;28;20203;-67
2022/01/19 12:52:52;;;;;;;5.10;4.35;;;5.90;99.90;;;;;;5013022;28;20254;-70
2022/01/19 12:55:24;;;;;;;8.20;5.38;;;5.90;99.90;;;;;;5013786;28;20172;-72
2022/01/19 12:57:51;;;;;;;4.95;3.92;;;5.90;99.90;;;;;;5013290;28;20178;-71
2022/01/19 13:00:24;;;;;;;6.72;4.60;;;5.90;99.90;;;;;;5013344;28;20754;-69
2022/01/19 13:02:49;;;;;;;4.90;4.10;;;6.10;99.90;;;;;;5013673;28;20264;-67
2022/01/19 13:05:20;;;;;;;6.00;5.40;;;6.30;99.90;;;;;;5013470;28;20671;-69
2022/01/19 13:07:57;;;;;;;6.25;4.63;;;6.40;99.90;;;;;;5012653;28;20507;-68
2022/01/19 13:12:59;;;;;;;9.27;4.95;;;6.60;99.90;;;;;;5013299;28;20170;-70
2022/01/19 13:15:40;;;;;;;4.70;4.03;;;6.70;99.90;;;;;;5013391;28;20174;-70
2022/01/19 13:18:06;;;;;;;5.68;3.22;;;6.80;99.90;;;;;;5012932;28;20189;-67
2022/01/19 13:20:32;;;;;;;7.10;4.43;;;6.80;99.90;;;;;;5011681;28;20319;-69
2022/01/19 13:22:58;;;;;;;4.73;4.30;;;7.00;99.90;;;;;;5012073;28;20421;-70
2022/01/19 13:25:29;;;;;;;4.40;3.53;;;7.00;99.90;;;;;;5013206;28;20305;-69
2022/01/19 13:27:57;;;;;;;3.67;3.40;;;7.00;99.90;;;;;;5012179;28;20170;-67
2022/01/19 13:30:25;;;;;;;8.10;4.47;;;7.10;99.90;;;;;;5010016;28;20855;-69
2022/01/19 13:32:52;;;;;;;4.00;3.70;;;7.10;99.90;;;;;;5011535;28;20529;-69
2022/01/19 13:35:18;;;;;;;6.78;4.90;;;7.00;99.90;;;;;;5009862;28;20530;-71
2022/01/19 13:37:58;;;;;;;5.57;3.72;;;7.00;99.90;;;;;;5011001;28;20209;-68
2022/01/19 13:40:32;;;;;;;4.40;3.60;;;7.00;99.90;;;;;;5011125;28;20224;-69
2022/01/19 13:43:11;;;;;;;6.50;4.15;;;7.10;99.90;;;;;;5010731;28;20682;-68
2022/01/19 13:50:52;;;;;;;5.25;4.45;;;7.10;99.90;;;;;;5016147;28;20186;-72
2022/01/19 13:53:32;;;;;;;10.57;4.93;;;7.20;99.90;;;;;;5016461;28;20561;-68
2022/01/19 13:55:59;;;;;;;5.78;3.90;;;7.10;99.90;;;;;;5016266;28;20630;-69
2022/01/19 13:58:46;;;;;;;6.50;4.13;;;7.10;99.90;;;;;;5015947;28;20179;-69
2022/01/19 14:01:19;;;;;;;10.18;4.40;;;7.20;99.90;;;;;;5015267;28;20640;-69
2022/01/19 14:03:57;;;;;;;7.60;4.93;;;7.20;99.90;;;;;;5015152;28;20225;-67
2022/01/19 14:06:29;;;;;;;6.65;4.72;;;7.20;99.90;;;;;;5016485;28;20276;-71
2022/01/19 14:09:27;;;;;;;5.93;5.38;;;7.10;99.90;;;;;;5015876;28;20193;-71
2022/01/19 14:12:10;;;;;;;5.68;5.05;;;7.10;99.90;;;;;;5015689;28;20212;-70
2022/01/19 14:14:51;;;;;;;6.68;3.92;;;7.10;99.90;;;;;;5016136;28;20163;-69
2022/01/19 14:17:29;;;;;;;5.65;4.07;;;7.10;99.90;;;;;;5016215;28;20519;-69
2022/01/19 14:19:56;;;;;;;4.30;2.97;;;7.00;99.90;;;;;;5015757;28;20211;-68
2022/01/19 14:22:21;;;;;;;4.30;2.95;;;6.90;99.90;;;;;;5015978;28;20171;-70
2022/01/19 14:24:49;;;;;;;5.27;3.30;;;6.90;99.90;;;;;;5016298;28;20633;-68
2022/01/19 14:27:33;;;;;;;3.90;3.47;;;6.90;99.90;;;;;;5014472;28;20211;-73
2022/01/19 14:30:16;;;;;;;4.85;3.33;;;6.90;99.90;;;;;;5015666;28;20251;-71
2022/01/19 14:32:53;;;;;;;4.32;3.45;;;6.90;99.90;;;;;;5015829;28;20174;-68
2022/01/19 14:35:37;;;;;;;5.75;4.28;;;6.90;99.90;;;;;;5016020;28;20188;-69
2022/01/19 14:38:11;;;;;;;3.58;3.20;;;6.90;99.90;;;;;;5015356;28;20173;-69
2022/01/19 14:41:06;;;;;;;3.17;2.80;;;7.00;99.90;;;;;;5015626;28;20209;-70